Time;durP1;ratioP1;P1;durP2;ratioP2;P2;SDS_P1;SDS_P2;PMS_P1;PMS_P2;Temp;Humidity;BMP_temperature;BMP_pressure;BME280_temperature;BME280_humidity;BME280_pressure;Samples;Min_cycle;Max_cycle;Signal;HPM_P1;HPM_P2
2022/03/02 00:00:14;;;;;;;11.97;9.43;;;;;;;1.77;81.32;94887.13;5035537;28;20177;-63
2022/03/02 00:02:39;;;;;;;15.27;9.93;;;;;;;2.06;80.57;94905.81;5053261;28;20181;-63
2022/03/02 00:05:07;;;;;;;15.70;9.83;;;;;;;1.80;80.84;94891.97;5053362;28;20572;-62
2022/03/02 00:07:33;;;;;;;16.73;10.50;;;;;;;1.88;81.22;94879.09;5053479;28;20257;-63
2022/03/02 00:09:58;;;;;;;18.37;10.53;;;;;;;1.76;80.69;94889.72;5053375;28;20705;-64
2022/03/02 00:12:24;;;;;;;16.67;10.33;;;;;;;1.43;80.90;94870.34;5053307;28;20184;-63
2022/03/02 00:14:49;;;;;;;18.73;10.07;;;;;;;1.46;81.58;94855.16;5052926;28;20617;-63
2022/03/02 00:17:15;;;;;;;19.30;11.53;;;;;;;1.54;82.53;94853.13;5053043;28;20276;-63
2022/03/02 00:19:41;;;;;;;19.67;11.13;;;;;;;1.46;84.17;94827.63;5052959;28;20201;-62
2022/03/02 00:22:06;;;;;;;20.93;12.70;;;;;;;1.31;83.57;94837.53;5053383;28;20226;-62
2022/03/02 00:24:32;;;;;;;20.47;13.40;;;;;;;1.18;84.60;94831.47;5052777;28;20281;-63
2022/03/02 00:26:58;;;;;;;18.73;11.63;;;;;;;1.17;85.68;94822.34;5053239;28;20178;-62
2022/03/02 00:29:24;;;;;;;20.77;12.00;;;;;;;1.49;85.68;94816.66;5052644;28;20226;-63
2022/03/02 00:31:50;;;;;;;23.50;13.50;;;;;;;1.38;85.85;94829.69;5053269;28;20203;-63
2022/03/02 00:34:15;;;;;;;21.13;12.07;;;;;;;1.58;85.28;94832.06;5052064;28;20270;-62
2022/03/02 00:36:42;;;;;;;20.73;12.47;;;;;;;1.67;86.29;94818.28;5053001;28;20215;-62
2022/03/02 00:39:07;;;;;;;18.77;11.87;;;;;;;1.73;85.38;94832.22;5052444;28;20710;-62
2022/03/02 00:41:33;;;;;;;20.07;11.87;;;;;;;1.53;84.13;94835.66;5053060;28;20186;-63
2022/03/02 00:43:59;;;;;;;17.83;11.40;;;;;;;1.60;85.05;94830.28;5052581;28;20288;-62
2022/03/02 00:46:29;;;;;;;16.43;10.13;;;;;;;1.48;85.30;94820.03;5051517;28;20182;-64
2022/03/02 00:48:56;;;;;;;18.90;10.80;;;;;;;1.27;86.83;94793.50;5052767;28;20664;-64
2022/03/02 00:51:23;;;;;;;17.77;10.73;;;;;;;1.26;87.36;94800.19;5052981;28;20200;-65
2022/03/02 00:53:49;;;;;;;13.93;9.87;;;;;;;1.40;86.27;94815.38;5053043;28;20243;-62
2022/03/02 00:56:14;;;;;;;17.40;9.47;;;;;;;1.27;86.61;94796.00;5035052;28;20204;-63
2022/03/02 00:58:40;;;;;;;17.73;10.20;;;;;;;1.33;87.01;94791.53;5053087;28;20198;-61
2022/03/02 01:01:06;;;;;;;17.03;10.10;;;;;;;1.48;86.66;94802.50;5053145;28;20190;-63
2022/03/02 01:03:32;;;;;;;19.10;10.93;;;;;;;1.35;85.24;94814.81;5052096;28;20616;-64
2022/03/02 01:06:05;;;;;;;13.87;9.67;;;;;;;1.51;84.65;94815.72;5051475;28;20279;-64
2022/03/02 01:08:32;;;;;;;16.57;9.73;;;;;;;1.34;83.97;94820.69;5034294;28;20214;-63
2022/03/02 01:10:58;;;;;;;17.43;9.37;;;;;;;1.53;82.80;94839.00;5052460;28;20193;-63
2022/03/02 01:13:23;;;;;;;17.27;9.30;;;;;;;1.17;84.22;94819.84;5052351;28;20206;-63
2022/03/02 01:15:48;;;;;;;19.10;9.80;;;;;;;1.08;85.90;94780.22;5051953;28;20645;-62
2022/03/02 01:18:14;;;;;;;18.20;10.07;;;;;;;1.17;86.25;94792.31;5052166;28;20332;-62
2022/03/02 01:20:39;;;;;;;14.17;9.80;;;;;;;1.35;85.08;94804.78;5052564;28;20648;-62
2022/03/02 01:23:06;;;;;;;17.50;9.63;;;;;;;1.19;83.29;94836.41;5052405;28;20201;-63
2022/03/02 01:25:32;;;;;;;14.90;9.23;;;;;;;1.29;83.23;94821.78;5052164;28;20285;-63
2022/03/02 01:27:58;;;;;;;12.93;8.60;;;;;;;1.33;83.06;94824.09;5051682;28;20213;-64
2022/03/02 01:30:23;;;;;;;12.80;8.47;;;;;;;1.27;83.57;94806.03;5051978;28;20177;-62
2022/03/02 01:32:49;;;;;;;13.83;9.07;;;;;;;1.43;84.85;94791.91;5033719;28;20699;-63
2022/03/02 01:35:15;;;;;;;13.80;8.43;;;;;;;1.60;84.56;94795.22;5051312;28;20628;-63
2022/03/02 01:37:40;;;;;;;14.53;8.43;;;;;;;1.55;83.22;94826.38;5051410;28;20193;-62
2022/03/02 01:40:09;;;;;;;13.20;8.83;;;;;;;1.36;82.14;94833.13;5051992;28;20380;-63
2022/03/02 01:42:40;;;;;;;13.87;8.30;;;;;;;1.05;83.59;94802.88;5051501;28;20176;-63
2022/03/02 01:45:07;;;;;;;13.80;8.37;;;;;;;1.08;82.96;94813.56;5071851;23;20648;-63
2022/03/02 01:47:33;;;;;;;13.77;9.50;;;;;;;1.23;83.51;94784.53;5071563;28;20241;-63
2022/03/02 01:49:58;;;;;;;14.43;9.33;;;;;;;1.21;83.49;94803.81;5070933;28;20950;-63
2022/03/02 01:52:24;;;;;;;16.17;10.43;;;;;;;1.16;84.65;94778.97;5071081;28;20189;-63
2022/03/02 01:54:56;;;;;;;20.10;10.37;;;;;;;0.96;85.29;94774.09;5071162;28;20659;-62
2022/03/02 01:57:22;;;;;;;18.10;10.67;;;;;;;0.98;84.61;94782.34;5070201;28;20209;-63
2022/03/02 01:59:47;;;;;;;18.47;10.67;;;;;;;1.07;84.30;94783.59;5071019;28;20276;-63
2022/03/02 02:02:13;;;;;;;14.77;9.77;;;;;;;0.81;86.33;94752.25;5070157;28;20211;-62
2022/03/02 02:04:38;;;;;;;13.23;9.30;;;;;;;0.81;85.68;94759.75;5071051;28;20201;-63
2022/03/02 02:07:04;;;;;;;13.07;8.67;;;;;;;0.53;86.10;94755.19;5070031;28;20229;-63
2022/03/02 02:09:30;;;;;;;14.60;8.90;;;;;;;0.57;86.67;94749.19;5071031;28;20291;-63
2022/03/02 02:11:55;;;;;;;13.03;7.83;;;;;;;0.66;85.68;94748.78;5071366;28;20237;-63
2022/03/02 02:14:21;;;;;;;13.60;8.20;;;;;;;0.38;86.38;94740.06;5071503;28;20265;-63
2022/03/02 02:16:46;;;;;;;11.77;7.50;;;;;;;0.21;85.96;94744.97;5072951;28;20606;-64
2022/03/02 02:19:12;;;;;;;12.70;7.70;;;;;;;0.13;86.42;94730.31;5065449;23;20697;-63
2022/03/02 02:21:37;;;;;;;12.50;8.03;;;;;;;0.21;86.58;94734.97;5035304;28;20210;-63
2022/03/02 02:24:03;;;;;;;12.80;7.87;;;;;;;0.11;86.36;94744.56;5042165;23;20753;-64
2022/03/02 02:26:28;;;;;;;13.47;8.17;;;;;;;0.24;86.59;94744.84;5035117;28;20190;-65
2022/03/02 02:28:54;;;;;;;10.70;7.60;;;;;;;0.32;87.03;94747.84;5034957;28;20604;-62
2022/03/02 02:31:21;;;;;;;10.53;6.90;;;;;;;0.29;85.38;94755.47;5035214;28;20320;-63
2022/03/02 02:33:46;;;;;;;12.13;7.90;;;;;;;0.31;85.02;94767.00;5034487;28;20283;-63
2022/03/02 02:36:15;;;;;;;10.23;7.37;;;;;;;0.31;85.96;94754.50;5034761;28;20713;-62
2022/03/02 02:38:41;;;;;;;13.50;8.07;;;;;;;0.56;85.79;94762.56;5034529;28;20218;-63
2022/03/02 02:41:07;;;;;;;14.30;8.40;;;;;;;0.56;84.45;94771.75;5034811;28;20175;-62
2022/03/02 02:43:33;;;;;;;11.33;7.53;;;;;;;0.70;84.00;94782.78;5034596;28;20576;-63
2022/03/02 02:45:58;;;;;;;11.30;7.67;;;;;;;0.73;83.86;94781.81;5034640;28;20272;-62
2022/03/02 02:48:24;;;;;;;10.90;6.87;;;;;;;0.89;83.69;94782.72;5035037;28;20232;-62
2022/03/02 02:50:50;;;;;;;10.37;7.00;;;;;;;0.93;83.28;94789.22;5034671;28;20178;-63
2022/03/02 02:53:16;;;;;;;10.63;7.50;;;;;;;0.81;83.80;94783.09;5035295;28;20202;-62
2022/03/02 02:55:43;;;;;;;10.03;6.50;;;;;;;0.88;83.72;94781.13;5034145;28;20691;-62
2022/03/02 02:58:09;;;;;;;9.87;6.90;;;;;;;0.77;83.73;94780.78;5035132;28;20210;-62
2022/03/02 03:00:38;;;;;;;13.10;7.17;;;;;;;0.81;82.96;94783.09;5035149;28;20197;-62
2022/03/02 03:03:05;;;;;;;11.20;6.77;;;;;;;0.73;82.46;94800.13;5035070;28;20679;-63
2022/03/02 03:05:33;;;;;;;10.90;6.80;;;;;;;0.79;82.23;94796.53;5033143;28;20243;-63
2022/03/02 03:08:10;;;;;;;10.20;6.93;;;;;;;0.67;81.95;94807.91;5033161;28;20639;-63
2022/03/02 03:10:37;;;;;;;9.37;7.13;;;;;;;0.77;82.40;94801.63;5034910;28;20182;-62
2022/03/02 03:13:03;;;;;;;8.63;6.33;;;;;;;0.39;83.00;94779.16;5034315;28;20685;-63
2022/03/02 03:15:29;;;;;;;9.93;6.53;;;;;;;0.58;82.69;94797.50;5032968;28;20210;-64
2022/03/02 03:17:55;;;;;;;8.77;5.80;;;;;;;0.38;82.83;94785.06;5034431;28;20292;-62
2022/03/02 03:20:24;;;;;;;8.43;6.27;;;;;;;0.56;82.81;94791.75;5035084;28;20224;-63
2022/03/02 03:22:52;;;;;;;10.40;6.40;;;;;;;0.65;81.79;94804.66;5034937;28;20689;-63
2022/03/02 03:25:18;;;;;;;10.97;7.17;;;;;;;0.50;81.85;94799.53;5034617;28;20656;-63
2022/03/02 03:27:44;;;;;;;9.03;6.23;;;;;;;0.50;82.31;94794.53;5033863;28;20182;-62
2022/03/02 03:30:12;;;;;;;8.63;5.80;;;;;;;0.56;82.52;94790.06;5033763;28;20522;-63
2022/03/02 03:32:38;;;;;;;9.33;6.67;;;;;;;0.44;80.32;94833.13;5034108;28;20179;-63
2022/03/02 03:35:07;;;;;;;9.50;5.80;;;;;;;0.55;81.71;94798.44;5034197;28;20209;-62
2022/03/02 03:37:32;;;;;;;9.00;6.17;;;;;;;0.48;82.04;94793.78;5034110;28;20258;-63
2022/03/02 03:39:58;;;;;;;8.30;6.33;;;;;;;0.21;83.13;94767.47;5033822;28;20216;-63
2022/03/02 03:42:23;;;;;;;9.50;7.10;;;;;;;0.37;82.63;94778.44;5033825;28;20189;-63
2022/03/02 03:44:49;;;;;;;11.83;7.30;;;;;;;0.17;82.56;94775.97;5033509;28;20727;-64
2022/03/02 03:47:16;;;;;;;7.93;5.53;;;;;;;0.53;83.05;94776.88;5033622;28;20217;-62
2022/03/02 03:49:41;;;;;;;8.37;6.10;;;;;;;0.24;83.40;94759.84;5033714;28;20225;-62
2022/03/02 03:52:07;;;;;;;8.20;5.73;;;;;;;0.39;83.57;94764.16;5032321;28;20209;-64
2022/03/02 03:54:32;;;;;;;6.60;5.13;;;;;;;0.52;83.51;94763.59;5033872;28;20217;-64
2022/03/02 03:56:58;;;;;;;8.87;5.27;;;;;;;0.51;83.69;94769.44;5033960;28;20266;-63
2022/03/02 03:59:24;;;;;;;8.80;5.50;;;;;;;0.33;85.23;94729.44;5033535;28;20696;-62
2022/03/02 04:01:49;;;;;;;7.83;5.07;;;;;;;0.41;84.91;94744.91;5033995;28;20186;-65
2022/03/02 04:04:15;;;;;;;7.80;5.33;;;;;;;0.13;86.43;94715.34;5034118;28;20627;-64
2022/03/02 04:06:40;;;;;;;9.30;5.40;;;;;;;0.18;86.99;94715.13;5032269;28;20656;-64
2022/03/02 04:09:06;;;;;;;9.77;5.67;;;;;;;0.24;88.32;94710.69;5034541;28;20210;-64
2022/03/02 04:11:31;;;;;;;10.47;4.93;;;;;;;0.04;88.81;94703.25;5032198;28;20182;-63
2022/03/02 04:13:57;;;;;;;8.37;5.50;;;;;;;0.19;89.32;94711.75;5033870;28;20287;-63
2022/03/02 04:16:23;;;;;;;8.60;5.30;;;;;;;0.15;88.57;94718.56;5033246;28;20281;-63
2022/03/02 04:18:49;;;;;;;7.70;5.30;;;;;;;0.12;89.63;94710.41;5032784;28;20291;-62
2022/03/02 04:21:14;;;;;;;8.77;5.50;;;;;;;0.40;89.08;94713.31;5031093;28;20181;-62
2022/03/02 04:23:40;;;;;;;10.80;6.13;;;;;;;0.16;88.53;94715.22;5033093;28;20266;-63
2022/03/02 04:26:06;;;;;;;8.60;5.47;;;;;;;0.17;89.91;94706.00;5031748;28;20186;-61
2022/03/02 04:28:32;;;;;;;9.30;5.47;;;;;;;0.20;89.78;94710.88;5048684;28;20708;-65
2022/03/02 04:30:58;;;;;;;8.33;5.10;;;;;;;0.30;89.36;94719.59;5033233;28;20579;-61
2022/03/02 04:33:23;;;;;;;9.27;5.77;;;;;;;0.13;90.25;94709.53;5033013;28;20663;-63
2022/03/02 04:35:49;;;;;;;8.53;5.60;;;;;;;0.08;90.17;94706.44;5033037;28;20214;-62
2022/03/02 04:38:15;;;;;;;9.13;5.53;;;;;;;-0.05;91.53;94688.66;5032118;28;20280;-63
2022/03/02 04:40:40;;;;;;;8.93;5.47;;;;;;;0.09;91.81;94708.03;5030666;28;20745;-64
2022/03/02 04:43:06;;;;;;;9.30;6.27;;;;;;;0.02;92.76;94699.19;5032494;28;20743;-64
2022/03/02 04:45:32;;;;;;;9.83;5.83;;;;;;;-0.10;93.06;94703.81;5032228;28;20692;-63
2022/03/02 04:47:59;;;;;;;10.07;6.57;;;;;;;-0.11;93.10;94717.22;5032692;28;20194;-65
2022/03/02 04:50:25;;;;;;;10.37;7.13;;;;;;;-0.31;95.02;94702.25;5032790;28;20177;-63
2022/03/02 04:52:52;;;;;;;9.53;6.40;;;;;;;-0.31;95.58;94704.75;5032598;28;20188;-64
2022/03/02 04:55:18;;;;;;;9.23;6.17;;;;;;;-0.43;96.89;94704.44;5032410;28;20250;-63
2022/03/02 04:58:02;;;;;;;11.83;6.17;;;;;;;-0.45;98.07;94708.69;5032491;28;20220;-63
2022/03/02 05:00:33;;;;;;;10.43;5.90;;;;;;;-0.31;98.16;94713.94;5032491;28;20173;-63
2022/03/02 05:03:01;;;;;;;11.20;7.20;;;;;;;-0.36;98.15;94709.13;5032689;28;20208;-63
2022/03/02 05:05:28;;;;;;;8.57;6.03;;;;;;;-0.40;98.71;94712.63;5032508;28;20625;-62
2022/03/02 05:07:54;;;;;;;8.53;5.67;;;;;;;-0.41;99.63;94710.19;5032168;28;20215;-63
2022/03/02 05:10:22;;;;;;;8.47;5.97;;;;;;;-0.23;99.20;94704.44;5032736;28;20177;-63
2022/03/02 05:12:48;;;;;;;8.03;5.80;;;;;;;-0.11;98.59;94713.91;5032384;28;20287;-62
2022/03/02 05:15:15;;;;;;;8.70;5.57;;;;;;;-0.01;99.00;94712.63;5032588;28;20292;-63
2022/03/02 05:17:42;;;;;;;8.13;4.93;;;;;;;-0.06;98.88;94714.50;5032380;28;20281;-63
2022/03/02 05:20:10;;;;;;;7.50;4.97;;;;;;;0.06;98.93;94709.00;5032194;28;20177;-66
2022/03/02 05:22:36;;;;;;;7.40;5.43;;;;;;;0.07;98.26;94715.59;5032687;28;20269;-63
2022/03/02 05:25:04;;;;;;;9.30;5.73;;;;;;;0.09;98.32;94718.03;5032744;28;20280;-64
2022/03/02 05:27:33;;;;;;;9.50;5.77;;;;;;;0.30;98.09;94719.59;5032360;28;20228;-63
2022/03/02 05:29:59;;;;;;;9.33;5.50;;;;;;;0.19;98.35;94721.75;5031910;28;20201;-64
2022/03/02 05:32:24;;;;;;;7.37;5.63;;;;;;;0.20;98.35;94728.38;5032174;28;20193;-65
2022/03/02 05:34:50;;;;;;;9.87;5.10;;;;;;;0.37;97.52;94729.25;5031912;28;20274;-63
2022/03/02 05:37:16;;;;;;;8.23;5.53;;;;;;;0.46;98.45;94718.84;5030585;28;20645;-64
2022/03/02 05:39:42;;;;;;;10.23;5.87;;;;;;;0.44;98.55;94722.28;5031826;28;20194;-63
2022/03/02 05:42:08;;;;;;;9.80;5.70;;;;;;;0.37;98.87;94724.25;5031760;28;20188;-65
2022/03/02 05:44:33;;;;;;;9.90;5.83;;;;;;;0.26;98.45;94723.13;5031854;28;20671;-63
2022/03/02 05:46:59;;;;;;;10.33;6.07;;;;;;;0.14;100.00;94716.16;5032031;28;20319;-65
2022/03/02 05:49:24;;;;;;;8.90;6.07;;;;;;;-0.12;100.00;94712.25;5031756;28;20550;-64
2022/03/02 05:51:50;;;;;;;8.93;6.43;;;;;;;-0.09;100.00;94717.97;5031453;28;20268;-64
2022/03/02 05:54:15;;;;;;;10.10;6.90;;;;;;;-0.19;100.00;94719.22;5032082;28;20580;-63
2022/03/02 05:56:41;;;;;;;10.07;7.50;;;;;;;-0.19;100.00;94716.72;5031976;28;20188;-62
2022/03/02 05:59:09;;;;;;;9.00;6.70;;;;;;;-0.06;100.00;94721.97;5030646;28;20679;-64
2022/03/02 06:01:36;;;;;;;8.47;5.73;;;;;;;0.05;100.00;94736.53;5030347;28;20655;-64
2022/03/02 06:04:03;;;;;;;8.77;6.23;;;;;;;0.06;100.00;94730.66;5031830;28;20209;-63
2022/03/02 06:06:29;;;;;;;9.30;6.63;;;;;;;-0.07;100.00;94726.19;5031804;28;20739;-62
2022/03/02 06:08:55;;;;;;;11.23;6.83;;;;;;;-0.04;100.00;94731.03;5037468;23;20238;-63
2022/03/02 06:11:22;;;;;;;11.83;6.97;;;;;;;0.09;100.00;94731.34;5031516;28;20675;-66
2022/03/02 06:13:47;;;;;;;11.77;7.60;;;;;;;0.09;100.00;94733.00;5042365;28;20215;-65
2022/03/02 06:16:14;;;;;;;12.77;6.93;;;;;;;0.19;100.00;94726.75;5051402;28;20187;-64
2022/03/02 06:18:40;;;;;;;13.07;7.83;;;;;;;0.25;100.00;94736.47;5051652;28;20632;-62
2022/03/02 06:21:06;;;;;;;11.77;7.80;;;;;;;0.34;100.00;94753.59;5051234;28;20617;-61
2022/03/02 06:23:40;;;;;;;12.80;8.27;;;;;;;0.26;100.00;94746.44;5051469;28;20224;-62
2022/03/02 06:26:07;;;;;;;13.03;8.47;;;;;;;0.32;100.00;94743.66;5051238;28;20563;-64
2022/03/02 06:28:33;;;;;;;13.70;7.67;;;;;;;0.26;100.00;94735.59;5051277;28;20679;-64
2022/03/02 06:30:58;;;;;;;14.90;8.10;;;;;;;0.33;100.00;94740.25;5051109;28;20179;-64
2022/03/02 06:33:24;;;;;;;13.23;8.87;;;;;;;0.31;100.00;94742.03;5033253;28;20683;-63
2022/03/02 06:35:49;;;;;;;10.50;6.93;;;;;;;0.29;100.00;94731.28;5051033;28;20204;-64
2022/03/02 06:38:16;;;;;;;15.47;8.83;;;;;;;0.51;100.00;94729.44;5050842;28;20289;-63
2022/03/02 06:40:58;;;;;;;15.60;7.97;;;;;;;0.67;100.00;94737.06;5050983;28;20185;-63
2022/03/02 06:43:26;;;;;;;11.20;7.70;;;;;;;0.62;100.00;94736.47;5051259;28;20273;-63
2022/03/02 06:45:58;;;;;;;13.47;8.37;;;;;;;0.74;100.00;94746.75;5051176;28;20208;-63
2022/03/02 06:48:36;;;;;;;19.37;9.03;;;;;;;0.56;100.00;94739.25;5051417;28;20205;-66
2022/03/02 06:51:02;;;;;;;10.97;7.90;;;;;;;0.55;100.00;94737.63;5050895;28;20183;-63
2022/03/02 06:53:32;;;;;;;12.77;7.97;;;;;;;0.60;100.00;94740.72;5055493;23;20184;-66
2022/03/02 06:56:00;;;;;;;13.03;7.73;;;;;;;0.52;100.00;94733.59;5031052;28;20220;-64
2022/03/02 06:58:28;;;;;;;14.90;9.17;;;;;;;0.67;100.00;94737.06;5031029;28;20201;-63
2022/03/02 07:00:56;;;;;;;12.67;8.27;;;;;;;0.56;100.00;94731.75;5030892;28;20695;-63
2022/03/02 07:03:27;;;;;;;13.13;8.17;;;;;;;0.71;100.00;94749.38;5031388;28;20285;-63
2022/03/02 07:05:54;;;;;;;13.27;8.57;;;;;;;0.69;100.00;94738.63;5034722;28;20186;-64
2022/03/02 07:08:22;;;;;;;11.00;7.83;;;;;;;0.81;99.72;94744.75;5034557;28;20258;-61
2022/03/02 07:10:50;;;;;;;11.20;8.13;;;;;;;0.59;99.05;94736.59;5034611;28;20232;-64
2022/03/02 07:13:17;;;;;;;12.07;8.57;;;;;;;0.62;100.00;94727.28;5033223;28;20263;-63
2022/03/02 07:15:43;;;;;;;11.83;8.50;;;;;;;0.65;99.61;94731.31;5033201;28;20708;-63
2022/03/02 07:18:08;;;;;;;12.43;7.63;;;;;;;0.42;100.00;94721.56;5034213;28;20209;-64
2022/03/02 07:20:39;;;;;;;12.97;7.57;;;;;;;0.62;100.00;94726.47;5034205;28;20622;-63
2022/03/02 07:23:12;;;;;;;14.70;8.57;;;;;;;0.62;100.00;94713.97;5034098;28;20260;-62
2022/03/02 07:25:41;;;;;;;13.03;8.73;;;;;;;0.91;99.38;94735.94;5034261;28;20169;-63
2022/03/02 07:28:09;;;;;;;17.77;9.37;;;;;;;0.91;98.90;94732.66;5034183;28;20271;-64
2022/03/02 07:30:36;;;;;;;16.37;8.97;;;;;;;0.91;98.66;94728.44;5034191;28;20204;-63
2022/03/02 07:33:03;;;;;;;14.60;8.93;;;;;;;2.91;100.00;94697.31;5034159;28;20210;-61
2022/03/02 07:35:37;;;;;;;15.80;9.93;;;;;;;2.76;100.00;94805.25;5034033;28;20472;-62
2022/03/02 07:38:05;;;;;;;15.17;9.00;;;;;;;1.68;100.00;94768.09;5034163;28;20205;-64
2022/03/02 07:40:32;;;;;;;14.33;8.77;;;;;;;1.44;100.00;94738.41;5032704;28;20273;-66
2022/03/02 07:42:58;;;;;;;13.93;8.57;;;;;;;1.53;100.00;94727.97;5033780;28;20205;-64
2022/03/02 07:45:23;;;;;;;14.10;8.63;;;;;;;1.52;100.00;94749.69;5034362;28;20266;-63
2022/03/02 07:47:50;;;;;;;16.30;9.47;;;;;;;1.46;100.00;94727.44;5033869;28;20186;-65
2022/03/02 07:50:18;;;;;;;14.90;9.07;;;;;;;1.47;100.00;94728.28;5033116;28;20186;-65
2022/03/02 07:52:51;;;;;;;13.63;8.87;;;;;;;1.08;100.00;94717.63;5034040;28;20189;-64
2022/03/02 07:55:17;;;;;;;15.77;10.10;;;;;;;1.15;100.00;94721.50;5034053;28;20244;-64
2022/03/02 07:57:44;;;;;;;18.30;10.50;;;;;;;0.99;100.00;94713.88;5033750;28;20197;-64
2022/03/02 08:00:11;;;;;;;14.33;9.30;;;;;;;1.03;100.00;94702.84;5034367;28;20189;-64
2022/03/02 08:02:40;;;;;;;13.40;9.77;;;;;;;1.25;100.00;94715.94;5016087;28;20571;-63
2022/03/02 08:05:07;;;;;;;18.10;10.73;;;;;;;1.22;100.00;94713.59;5033570;28;20236;-63
2022/03/02 08:07:35;;;;;;;15.83;9.57;;;;;;;1.21;100.00;94706.97;5033645;28;20185;-63
2022/03/02 08:10:00;;;;;;;14.63;10.30;;;;;;;1.14;100.00;94710.66;5034003;28;20182;-63
2022/03/02 08:12:26;;;;;;;16.57;10.67;;;;;;;1.16;100.00;94718.09;5033716;28;20185;-63
2022/03/02 08:14:52;;;;;;;16.53;10.20;;;;;;;0.96;100.00;94691.50;5033575;28;20214;-63
2022/03/02 08:17:19;;;;;;;18.10;10.70;;;;;;;0.98;100.00;94691.44;5032228;28;20630;-64
2022/03/02 08:19:48;;;;;;;18.87;11.00;;;;;;;1.21;100.00;94694.44;5033763;28;20198;-64
2022/03/02 08:22:17;;;;;;;18.00;11.27;;;;;;;1.37;100.00;94702.06;5033587;28;20217;-63
2022/03/02 08:24:50;;;;;;;19.17;10.33;;;;;;;1.63;100.00;94714.09;5033541;28;20248;-62
2022/03/02 08:27:16;;;;;;;18.57;11.40;;;;;;;1.70;100.00;94723.75;5033542;28;20220;-64
2022/03/02 08:29:44;;;;;;;19.97;12.03;;;;;;;1.87;100.00;94717.91;5032263;28;20582;-63
2022/03/02 08:32:14;;;;;;;23.23;11.97;;;;;;;2.24;100.00;94727.66;5032004;28;20610;-63
2022/03/02 08:34:43;;;;;;;19.80;11.70;;;;;;;2.29;100.00;94735.78;5033271;28;20587;-64
2022/03/02 08:37:08;;;;;;;21.57;12.70;;;;;;;2.15;100.00;94733.16;5031807;28;20184;-64
2022/03/02 08:39:34;;;;;;;19.80;12.03;;;;;;;2.24;100.00;94725.16;5033361;28;20221;-66
2022/03/02 08:41:59;;;;;;;21.30;10.73;;;;;;;2.05;100.00;94748.75;5033155;28;20186;-64
2022/03/02 08:44:24;;;;;;;15.87;10.13;;;;;;;1.70;100.00;94717.91;5033238;28;20256;-64
2022/03/02 08:46:50;;;;;;;18.97;11.17;;;;;;;1.91;100.00;94723.56;5032920;28;20228;-64
2022/03/02 08:49:18;;;;;;;16.90;10.47;;;;;;;1.76;100.00;94709.31;5033050;28;20669;-63
2022/03/02 08:51:44;;;;;;;18.33;11.40;;;;;;;1.89;100.00;94720.31;5032734;28;20186;-62
2022/03/02 08:54:14;;;;;;;17.17;11.07;;;;;;;2.13;100.00;94706.53;5032687;28;20253;-63
2022/03/02 08:56:41;;;;;;;16.97;10.87;;;;;;;2.29;100.00;94739.97;5032784;28;20641;-63
2022/03/02 08:59:11;;;;;;;18.53;11.90;;;;;;;2.44;100.00;94739.19;5032997;28;20240;-62
2022/03/02 09:01:43;;;;;;;19.53;11.53;;;;;;;2.77;100.00;94749.97;5032675;28;20177;-63
2022/03/02 09:04:13;;;;;;;19.30;10.90;;;;;;;2.49;100.00;94759.81;5032747;28;20208;-63
2022/03/02 09:06:39;;;;;;;18.47;11.13;;;;;;;2.53;100.00;94733.69;5032570;28;20182;-63
2022/03/02 09:09:06;;;;;;;17.90;11.17;;;;;;;2.32;100.00;94724.78;5032584;28;20233;-63
2022/03/02 09:11:33;;;;;;;17.00;11.03;;;;;;;2.53;100.00;94723.66;5032584;28;20661;-62
2022/03/02 09:14:00;;;;;;;20.07;12.17;;;;;;;2.83;100.00;94737.06;5032558;28;20198;-62
2022/03/02 09:16:26;;;;;;;19.63;11.13;;;;;;;3.23;98.10;94760.88;5032240;28;20202;-63
2022/03/02 09:18:52;;;;;;;19.73;11.90;;;;;;;3.79;97.18;94771.09;5032591;28;20214;-64
2022/03/02 09:21:20;;;;;;;19.50;12.10;;;;;;;4.02;97.09;94750.44;5032151;28;20248;-62
2022/03/02 09:23:46;;;;;;;20.20;10.77;;;;;;;3.42;94.93;94797.44;5030883;28;20217;-62
2022/03/02 09:26:14;;;;;;;20.23;10.83;;;;;;;3.77;94.56;94785.44;5031639;28;20191;-63
2022/03/02 09:28:43;;;;;;;19.03;12.43;;;;;;;4.71;91.92;94818.47;5032034;28;20210;-63
2022/03/02 09:31:10;;;;;;;18.57;10.60;;;;;;;4.61;88.47;94850.13;5032150;28;20182;-64
2022/03/02 09:33:36;;;;;;;16.83;10.73;;;;;;;4.41;90.17;94807.72;5039004;22;20250;-62
2022/03/02 09:36:07;;;;;;;17.03;11.33;;;;;;;4.49;89.13;94812.28;5031784;28;20220;-62
2022/03/02 09:38:34;;;;;;;19.93;12.23;;;;;;;4.80;88.38;94829.72;5032311;28;20227;-63
2022/03/02 09:41:08;;;;;;;21.87;12.00;;;;;;;4.92;89.26;94796.25;5031763;28;20217;-62
2022/03/02 09:43:36;;;;;;;17.77;11.73;;;;;;;5.58;86.88;94836.66;5032350;28;20209;-63
2022/03/02 09:46:07;;;;;;;17.20;11.17;;;;;;;6.04;85.04;94854.78;5031912;28;20182;-62
2022/03/02 09:48:35;;;;;;;19.70;12.63;;;;;;;6.41;84.17;94864.94;5031701;28;20695;-63
2022/03/02 09:51:07;;;;;;;18.67;11.20;;;;;;;6.26;84.10;94830.56;5031553;28;20179;-62
2022/03/02 09:53:34;;;;;;;16.57;10.33;;;;;;;5.16;81.06;94887.97;5031908;28;20206;-63
2022/03/02 09:56:03;;;;;;;12.73;9.50;;;;;;;4.61;84.49;94804.81;5031560;28;20296;-63
2022/03/02 09:58:29;;;;;;;18.33;12.07;;;;;;;4.93;83.43;94826.38;5031721;28;20213;-65
2022/03/02 10:00:56;;;;;;;13.50;9.73;;;;;;;5.10;82.46;94840.47;5013593;28;20181;-62
2022/03/02 10:03:25;;;;;;;16.40;10.07;;;;;;;4.83;82.85;94832.88;5013671;28;20283;-63
2022/03/02 10:05:53;;;;;;;15.43;8.70;;;;;;;4.63;81.75;94855.88;5031405;28;20184;-62
2022/03/02 10:08:20;;;;;;;12.80;8.83;;;;;;;4.68;81.01;94848.91;5031520;28;20285;-63
2022/03/02 10:10:48;;;;;;;13.80;9.53;;;;;;;5.13;75.84;94827.69;5031397;28;20186;-64
2022/03/02 10:13:16;;;;;;;14.13;9.77;;;;;;;5.65;73.47;94878.25;5031600;28;20212;-63
2022/03/02 10:15:43;;;;;;;14.17;9.07;;;;;;;5.62;69.43;94939.75;5031118;28;20275;-64
2022/03/02 10:18:12;;;;;;;15.90;9.40;;;;;;;5.48;68.32;94879.28;5031581;28;20297;-63
2022/03/02 10:20:49;;;;;;;15.13;9.60;;;;;;;5.80;68.46;94874.75;5031587;28;20180;-63
2022/03/02 10:23:23;;;;;;;14.40;10.07;;;;;;;5.87;69.01;94853.31;5031876;28;20698;-64
2022/03/02 10:26:15;;;;;;;15.70;9.10;;;;;;;5.65;68.88;94853.84;5020928;23;20239;-64
2022/03/02 10:29:03;;;;;;;14.33;8.63;;;;;;;5.67;67.17;94876.44;5011554;28;20261;-63
2022/03/02 10:31:45;;;;;;;12.50;9.37;;;;;;;5.43;66.15;94885.50;5022628;22;20724;-65
2022/03/02 10:34:26;;;;;;;13.23;8.97;;;;;;;5.43;68.06;94835.91;5031028;28;20286;-63
2022/03/02 10:37:07;;;;;;;10.60;8.17;;;;;;;5.40;68.33;94815.91;5031141;28;20189;-63
2022/03/02 10:39:51;;;;;;;16.17;9.63;;;;;;;5.69;67.17;94829.22;5033743;28;20265;-64
2022/03/02 10:42:23;;;;;;;13.10;9.30;;;;;;;5.52;66.71;94844.59;5035865;28;20195;-66
2022/03/02 10:45:10;;;;;;;14.90;9.83;;;;;;;5.62;68.32;94790.97;5035293;28;20198;-62
2022/03/02 10:47:59;;;;;;;15.33;9.83;;;;;;;6.26;66.97;94830.56;5033963;28;20771;-64
2022/03/02 10:50:27;;;;;;;15.87;9.53;;;;;;;6.28;65.06;94856.50;5004726;28;20208;-63
2022/03/02 10:52:55;;;;;;;16.20;9.37;;;;;;;5.39;66.82;94810.97;5034936;28;20192;-64
2022/03/02 10:55:22;;;;;;;14.83;9.97;;;;;;;5.08;68.07;94767.53;5034700;28;20361;-64
2022/03/02 10:57:53;;;;;;;14.57;9.17;;;;;;;5.26;68.83;94747.09;5033744;28;20264;-64
2022/03/02 11:00:21;;;;;;;15.50;8.97;;;;;;;5.82;70.77;94688.81;5034624;28;20643;-60
2022/03/02 11:02:56;;;;;;;15.30;10.43;;;;;;;6.23;67.53;94760.13;5033452;28;20179;-63
2022/03/02 11:05:23;;;;;;;14.43;9.07;;;;;;;6.52;65.65;94799.41;5034362;28;20192;-63
2022/03/02 11:07:49;;;;;;;14.90;9.37;;;;;;;5.64;64.67;94795.91;5033159;28;20197;-70
2022/03/02 11:10:20;;;;;;;15.17;9.93;;;;;;;5.52;66.44;94766.44;5034512;28;20272;-63
2022/03/02 11:12:47;;;;;;;13.97;9.43;;;;;;;5.39;67.11;94738.72;5034391;28;20164;-65
2022/03/02 11:15:14;;;;;;;14.07;9.90;;;;;;;5.86;66.49;94755.84;5034325;28;20203;-62
2022/03/02 11:17:54;;;;;;;14.23;9.23;;;;;;;5.60;65.38;94764.25;5033302;28;20191;-64
2022/03/02 11:20:21;;;;;;;13.83;9.23;;;;;;;5.96;64.43;94788.88;5034522;28;20195;-66
2022/03/02 11:23:02;;;;;;;15.73;9.07;;;;;;;5.80;64.42;94772.16;5034144;28;20284;-64
2022/03/02 11:25:48;;;;;;;13.67;8.87;;;;;;;5.94;63.90;94783.91;5032788;28;20188;-67
2022/03/02 11:28:16;;;;;;;14.83;9.83;;;;;;;5.70;66.48;94704.75;5034189;28;20227;-62
2022/03/02 11:30:57;;;;;;;15.33;9.73;;;;;;;6.10;63.46;94779.47;5034056;28;20182;-63